createdAt,value
2023-02-11T00:01:41.235Z,1.48
2023-02-11T00:04:10.350Z,1.48
2023-02-11T00:06:39.079Z,1.48
2023-02-11T00:09:07.966Z,1.48
2023-02-11T00:11:36.949Z,1.53
2023-02-11T00:14:08.615Z,1.58
2023-02-11T00:16:38.224Z,1.64
2023-02-11T00:19:07.666Z,1.69
2023-02-11T00:21:36.322Z,1.71
2023-02-11T00:24:05.651Z,1.73
2023-02-11T00:26:36.218Z,1.72
2023-02-11T00:29:07.454Z,1.73
2023-02-11T00:31:36.997Z,1.74
2023-02-11T00:34:07.344Z,1.73
2023-02-11T00:36:36.885Z,1.71
2023-02-11T00:39:06.057Z,1.69
2023-02-11T00:41:36.854Z,1.68
2023-02-11T00:44:06.098Z,1.68
2023-02-11T00:46:37.363Z,1.67
2023-02-11T00:49:06.215Z,1.68
2023-02-11T00:51:35.182Z,1.66
2023-02-11T00:54:06.265Z,1.67
2023-02-11T00:56:37.930Z,1.69
2023-02-11T00:59:06.946Z,1.73
2023-02-11T01:01:35.766Z,1.76
2023-02-11T01:04:04.745Z,1.76
2023-02-11T01:06:33.736Z,1.76
2023-02-11T01:09:02.308Z,1.75
2023-02-11T01:11:31.264Z,1.75
2023-02-11T01:14:00.594Z,1.72
2023-02-11T01:16:32.124Z,1.69
2023-02-11T01:19:02.042Z,1.65
2023-02-11T01:21:30.651Z,1.62
2023-02-11T01:23:59.311Z,1.59
2023-02-11T01:26:31.895Z,1.57
2023-02-11T01:29:01.417Z,1.58
2023-02-11T01:31:31.976Z,1.60
2023-02-11T01:34:02.894Z,1.61
2023-02-11T01:36:31.665Z,1.60
2023-02-11T01:39:02.162Z,1.62
2023-02-11T01:41:31.138Z,1.62
2023-02-11T01:44:20.152Z,1.61
2023-02-11T01:46:51.075Z,1.58
2023-02-11T01:49:38.460Z,1.56
2023-02-11T01:52:12.774Z,1.54
2023-02-11T01:55:08.414Z,1.51
2023-02-11T01:57:40.573Z,1.52
2023-02-11T02:00:20.640Z,1.51
2023-02-11T02:03:08.450Z,1.53
2023-02-11T02:05:49.553Z,1.56
2023-02-11T02:08:51.971Z,1.61
2023-02-11T02:11:20.700Z,1.63
2023-02-11T02:13:49.701Z,1.62
2023-02-11T02:16:22.427Z,1.60
2023-02-11T02:19:06.567Z,1.56
2023-02-11T02:21:41.479Z,1.54
2023-02-11T02:24:36.594Z,1.51
2023-02-11T02:27:41.167Z,1.49
2023-02-11T02:30:33.388Z,1.47
2023-02-11T02:33:25.719Z,1.47
2023-02-11T02:35:58.074Z,1.49
2023-02-11T02:38:52.986Z,1.51
2023-02-11T02:41:27.569Z,1.55
2023-02-11T02:43:56.827Z,1.57
2023-02-11T02:46:29.246Z,1.60
2023-02-11T02:48:59.206Z,1.61
2023-02-11T02:51:46.375Z,1.62
2023-02-11T02:54:42.970Z,1.61
2023-02-11T02:57:20.816Z,1.59
2023-02-11T03:00:15.941Z,1.58
2023-02-11T03:02:48.199Z,1.56
2023-02-11T03:05:26.683Z,1.55
2023-02-11T03:08:08.711Z,1.52
2023-02-11T03:10:46.160Z,1.51
2023-02-11T03:13:18.441Z,1.52
2023-02-11T03:15:51.865Z,1.54
2023-02-11T03:18:24.970Z,1.57
2023-02-11T03:20:56.078Z,1.61
2023-02-11T03:23:42.881Z,1.63
2023-02-11T03:26:23.656Z,1.63
2023-02-11T03:29:10.493Z,1.64
2023-02-11T03:32:16.603Z,1.63
2023-02-11T03:34:54.342Z,1.63
2023-02-11T03:37:45.360Z,1.61
2023-02-11T03:40:20.170Z,1.61
2023-02-11T03:42:59.438Z,1.60
2023-02-11T03:45:29.240Z,1.60
2023-02-11T03:48:05.411Z,1.59
2023-02-11T03:50:37.837Z,1.62
2023-02-11T03:53:08.289Z,1.67
2023-02-11T03:55:40.220Z,1.73
2023-02-11T03:58:09.468Z,1.78
2023-02-11T04:00:41.292Z,1.82
2023-02-11T04:03:11.798Z,1.82
2023-02-11T04:05:40.955Z,1.82
2023-02-11T04:08:09.858Z,1.82
2023-02-11T04:10:38.965Z,1.79
2023-02-11T04:13:07.958Z,1.76
2023-02-11T04:15:36.666Z,1.74
2023-02-11T04:18:05.450Z,1.71
2023-02-11T04:20:34.645Z,1.68
2023-02-11T04:23:03.561Z,1.65
2023-02-11T04:25:32.519Z,1.67
2023-02-11T04:28:01.279Z,1.67
2023-02-11T04:30:30.355Z,1.68
2023-02-11T04:33:00.053Z,1.67
2023-02-11T04:35:28.883Z,1.65
2023-02-11T04:37:57.865Z,1.63
2023-02-11T04:40:26.803Z,1.60
2023-02-11T04:42:55.749Z,1.59
2023-02-11T04:45:24.762Z,1.57
2023-02-11T04:47:53.844Z,1.55
2023-02-11T04:50:23.041Z,1.52
2023-02-11T04:52:52.101Z,1.51
2023-02-11T04:55:21.137Z,1.50
2023-02-11T04:57:49.737Z,1.53
2023-02-11T05:00:18.384Z,1.54
2023-02-11T05:02:47.178Z,1.57
2023-02-11T05:05:15.946Z,1.61
2023-02-11T05:07:44.960Z,1.67
2023-02-11T05:10:14.194Z,1.73
2023-02-11T05:12:43.514Z,1.75
2023-02-11T05:15:12.160Z,1.78
2023-02-11T05:17:41.228Z,1.82
2023-02-11T05:20:11.071Z,1.87
2023-02-11T05:22:39.687Z,1.90
2023-02-11T05:25:09.356Z,1.92
2023-02-11T05:27:38.706Z,1.93
2023-02-11T05:30:07.936Z,1.93
2023-02-11T05:32:36.800Z,1.94
2023-02-11T05:35:06.207Z,1.94
2023-02-11T05:37:35.716Z,1.95
2023-02-11T05:40:05.340Z,1.93
2023-02-11T05:42:34.514Z,1.94
2023-02-11T05:45:04.099Z,1.95
2023-02-11T05:47:33.688Z,1.96
2023-02-11T05:50:02.384Z,2.00
2023-02-11T05:52:31.625Z,2.05
2023-02-11T05:55:00.635Z,2.10
2023-02-11T05:57:29.709Z,2.13
2023-02-11T05:59:58.769Z,2.15
2023-02-11T06:02:27.871Z,2.13
2023-02-11T06:04:56.902Z,2.11
2023-02-11T06:07:25.847Z,2.13
2023-02-11T06:09:54.756Z,2.14
2023-02-11T06:12:23.807Z,2.14
2023-02-11T06:14:53.072Z,2.15
2023-02-11T06:17:21.743Z,2.13
2023-02-11T06:19:50.526Z,2.13
2023-02-11T06:22:19.543Z,2.15
2023-02-11T06:25:00.919Z,2.19
2023-02-11T06:27:31.184Z,2.25
2023-02-11T06:30:00.012Z,2.31
2023-02-11T06:32:43.207Z,2.37
2023-02-11T06:35:14.733Z,2.43
2023-02-11T06:37:43.705Z,2.49
2023-02-11T06:40:12.971Z,2.52
2023-02-11T06:42:43.389Z,2.55
2023-02-11T06:45:13.627Z,2.58
2023-02-11T06:47:42.540Z,2.59
2023-02-11T06:50:14.289Z,2.61
2023-02-11T06:52:43.464Z,2.65
2023-02-11T06:55:12.169Z,2.69
2023-02-11T06:57:41.268Z,2.73
2023-02-11T07:00:10.680Z,2.79
2023-02-11T07:02:39.377Z,2.85
2023-02-11T07:05:09.274Z,2.93
2023-02-11T07:07:38.378Z,3.06
2023-02-11T07:10:07.246Z,3.20
2023-02-11T07:12:36.276Z,3.35
2023-02-11T07:15:05.754Z,3.50
2023-02-11T07:17:35.970Z,3.66
2023-02-11T07:20:05.624Z,3.82
2023-02-11T07:22:34.947Z,3.94
2023-02-11T07:25:04.668Z,4.06
2023-02-11T07:27:34.388Z,4.25
2023-02-11T07:30:06.860Z,4.46
2023-02-11T07:32:36.748Z,4.60
2023-02-11T07:35:05.970Z,4.71
2023-02-11T07:37:35.919Z,5.03
2023-02-11T07:40:08.406Z,5.31
2023-02-11T07:42:37.500Z,5.85
2023-02-11T07:45:07.522Z,6.23
2023-02-11T07:47:38.929Z,6.71
2023-02-11T07:50:09.108Z,7.19
2023-02-11T07:52:37.878Z,7.39
2023-02-11T07:55:06.760Z,7.66
2023-02-11T07:57:36.803Z,7.55
2023-02-11T08:00:06.568Z,7.34
2023-02-11T08:02:39.965Z,7.12
2023-02-11T08:05:09.315Z,6.85
2023-02-11T08:07:38.150Z,6.60
2023-02-11T08:10:07.697Z,6.39
2023-02-11T08:12:36.547Z,6.23
2023-02-11T08:15:05.963Z,6.13
2023-02-11T08:17:37.023Z,6.06
2023-02-11T08:20:07.076Z,6.00
2023-02-11T08:22:36.151Z,5.95
2023-02-11T08:25:05.554Z,5.91
2023-02-11T08:27:34.826Z,5.88
2023-02-11T08:30:04.198Z,5.87
2023-02-11T08:32:57.680Z,5.87
2023-02-11T08:35:47.969Z,5.87
2023-02-11T08:38:16.808Z,5.88
2023-02-11T08:40:45.746Z,5.89
2023-02-11T08:43:14.809Z,5.90
2023-02-11T08:45:43.771Z,5.89
2023-02-11T08:48:12.483Z,5.88
2023-02-11T08:50:42.919Z,5.86
2023-02-11T08:53:11.971Z,5.85
2023-02-11T08:55:40.654Z,5.84
2023-02-11T08:58:10.048Z,5.87
2023-02-11T09:00:38.856Z,5.91
2023-02-11T09:03:08.754Z,5.97
2023-02-11T09:05:41.354Z,6.00
2023-02-11T09:08:10.911Z,6.04
2023-02-11T09:10:40.083Z,6.08
2023-02-11T09:13:09.691Z,6.09
2023-02-11T09:15:38.409Z,6.14
2023-02-11T09:18:07.853Z,6.16
2023-02-11T09:20:36.473Z,6.20
2023-02-11T09:23:05.251Z,6.25
2023-02-11T09:25:34.058Z,6.35
2023-02-11T09:28:02.698Z,6.48
2023-02-11T09:30:31.545Z,6.66
2023-02-11T09:33:00.258Z,6.77
2023-02-11T09:35:29.043Z,6.87
2023-02-11T09:37:57.859Z,6.94
2023-02-11T09:40:26.947Z,6.99
2023-02-11T09:43:12.167Z,6.98
2023-02-11T09:45:41.239Z,7.00
2023-02-11T09:48:20.665Z,7.10
2023-02-11T09:51:04.037Z,7.19
2023-02-11T09:53:42.107Z,7.29
2023-02-11T09:56:13.954Z,7.51
2023-02-11T09:58:45.307Z,7.79
2023-02-11T10:01:46.438Z,7.99
2023-02-11T10:04:35.814Z,8.08
2023-02-11T10:07:34.728Z,8.10
2023-02-11T10:10:40.942Z,8.05
2023-02-11T10:13:32.797Z,7.96
2023-02-11T10:16:22.963Z,7.94
2023-02-11T10:19:14.487Z,7.96
2023-02-11T10:21:57.122Z,8.02
2023-02-11T10:24:30.678Z,8.11
2023-02-11T10:27:02.043Z,8.13
2023-02-11T10:29:41.080Z,8.13
2023-02-11T10:32:45.000Z,8.06
2023-02-11T10:35:21.964Z,7.93
2023-02-11T10:37:51.266Z,7.81
2023-02-11T10:40:26.697Z,7.70
2023-02-11T10:42:59.929Z,7.59
2023-02-11T10:45:49.286Z,7.45
2023-02-11T10:48:39.968Z,7.36
2023-02-11T10:51:18.720Z,7.28
2023-02-11T10:53:50.538Z,7.24
2023-02-11T10:56:27.141Z,7.19
2023-02-11T10:59:21.479Z,7.17
2023-02-11T11:01:56.452Z,7.15
2023-02-11T11:04:38.093Z,7.12
2023-02-11T11:07:20.668Z,7.08
2023-02-11T11:09:57.102Z,7.01
2023-02-11T11:12:47.829Z,6.96
2023-02-11T11:15:19.159Z,6.92
2023-02-11T11:18:20.865Z,6.91
2023-02-11T11:21:02.550Z,6.92
2023-02-11T11:23:32.021Z,6.91
2023-02-11T11:26:15.310Z,6.88
2023-02-11T11:28:47.644Z,6.86
2023-02-11T11:31:25.885Z,6.86
2023-02-11T11:34:00.963Z,6.84
2023-02-11T11:36:36.732Z,6.85
2023-02-11T11:39:25.566Z,6.88
2023-02-11T11:42:06.995Z,6.93
2023-02-11T11:44:37.410Z,7.04
2023-02-11T11:47:09.259Z,7.10
2023-02-11T11:49:42.817Z,7.12
2023-02-11T11:52:42.466Z,7.14
2023-02-11T11:55:23.643Z,7.13
2023-02-11T11:57:52.613Z,7.13
2023-02-11T12:00:28.906Z,7.14
2023-02-11T12:03:01.269Z,7.19
2023-02-11T12:05:44.782Z,7.25
2023-02-11T12:08:43.556Z,7.28
2023-02-11T12:11:28.374Z,7.30
2023-02-11T12:14:39.286Z,7.32
2023-02-11T12:17:23.492Z,7.39
2023-02-11T12:19:58.090Z,7.48
2023-02-11T12:22:36.011Z,7.48
2023-02-11T12:25:42.041Z,7.47
2023-02-11T12:28:29.845Z,7.42
2023-02-11T12:31:38.744Z,7.44
2023-02-11T12:34:35.759Z,7.45
2023-02-11T12:37:35.213Z,7.50
2023-02-11T12:40:47.542Z,7.52
2023-02-11T12:43:24.568Z,7.59
2023-02-11T12:46:04.169Z,7.66
2023-02-11T12:48:48.575Z,7.68
2023-02-11T12:52:05.249Z,7.68
2023-02-11T12:54:42.852Z,7.63
2023-02-11T12:57:20.153Z,7.59
2023-02-11T12:59:56.872Z,7.55
2023-02-11T13:03:00.449Z,7.49
2023-02-11T13:05:52.713Z,7.40
2023-02-11T13:08:34.384Z,7.34
2023-02-11T13:11:08.759Z,7.30
2023-02-11T13:13:56.968Z,7.26
2023-02-11T13:16:28.505Z,7.24
2023-02-11T13:19:15.672Z,7.23
2023-02-11T13:22:17.431Z,7.23
2023-02-11T13:25:03.117Z,7.24
2023-02-11T13:27:43.996Z,7.24
2023-02-11T13:30:35.678Z,7.24
2023-02-11T13:33:07.794Z,7.23
2023-02-11T13:35:38.562Z,7.22
2023-02-11T13:38:23.379Z,7.19
2023-02-11T13:41:18.608Z,7.16
2023-02-11T13:43:59.276Z,7.16
2023-02-11T13:46:30.946Z,7.15
2023-02-11T13:48:59.855Z,7.18
2023-02-11T13:51:39.768Z,7.22
2023-02-11T13:54:19.125Z,7.28
2023-02-11T13:57:20.248Z,7.34
2023-02-11T14:00:04.007Z,7.41
2023-02-11T14:02:56.641Z,7.44
2023-02-11T14:05:52.168Z,7.45
2023-02-11T14:08:42.137Z,7.44
2023-02-11T14:11:33.600Z,7.43
2023-02-11T14:14:18.631Z,7.38
2023-02-11T14:17:20.482Z,7.34
2023-02-11T14:19:51.841Z,7.35
2023-02-11T14:22:26.846Z,7.40
2023-02-11T14:24:57.599Z,7.43
2023-02-11T14:27:47.186Z,7.39
2023-02-11T14:30:35.286Z,7.33
2023-02-11T14:33:14.707Z,7.26
2023-02-11T14:35:52.606Z,7.20
2023-02-11T14:38:39.395Z,7.17
2023-02-11T14:41:32.133Z,7.12
2023-02-11T14:44:20.002Z,7.10
2023-02-11T14:46:52.944Z,7.10
2023-02-11T14:49:29.122Z,7.06
2023-02-11T14:52:08.844Z,7.06
2023-02-11T14:54:38.028Z,7.05
2023-02-11T14:57:17.968Z,7.05
2023-02-11T15:00:03.077Z,7.01
2023-02-11T15:02:38.788Z,6.96
2023-02-11T15:05:16.358Z,6.92
2023-02-11T15:07:57.427Z,6.90
2023-02-11T15:10:37.285Z,6.90
2023-02-11T15:13:06.348Z,6.89
2023-02-11T15:15:39.405Z,6.88
2023-02-11T15:18:10.044Z,6.86
2023-02-11T15:20:41.434Z,6.84
2023-02-11T15:23:21.290Z,6.82
2023-02-11T15:25:56.666Z,6.78
2023-02-11T15:28:32.161Z,6.72
2023-02-11T15:31:16.546Z,6.68
2023-02-11T15:33:46.661Z,6.65
2023-02-11T15:36:17.334Z,6.62
2023-02-11T15:38:46.080Z,6.62
2023-02-11T15:41:45.380Z,6.60
2023-02-11T15:44:34.918Z,6.60
2023-02-11T15:47:10.981Z,6.59
2023-02-11T15:49:45.436Z,6.59
2023-02-11T15:52:22.512Z,6.56
2023-02-11T15:54:54.120Z,6.56
2023-02-11T15:57:24.910Z,6.54
2023-02-11T15:59:55.608Z,6.50
2023-02-11T16:02:37.283Z,6.46
2023-02-11T16:05:09.286Z,6.43
2023-02-11T16:07:53.112Z,6.43
2023-02-11T16:10:35.726Z,6.44
2023-02-11T16:13:20.584Z,6.45
2023-02-11T16:16:05.893Z,6.42
2023-02-11T16:18:40.487Z,6.41
2023-02-11T16:21:17.181Z,6.45
2023-02-11T16:23:53.757Z,6.46
2023-02-11T16:26:27.957Z,6.46
2023-02-11T16:29:11.820Z,6.41
2023-02-11T16:31:43.542Z,6.39
2023-02-11T16:34:26.218Z,6.38
2023-02-11T16:36:55.426Z,6.36
2023-02-11T16:39:24.605Z,6.36
2023-02-11T16:41:53.646Z,6.34
2023-02-11T16:44:22.639Z,6.35
2023-02-11T16:46:53.108Z,6.36
2023-02-11T16:49:28.412Z,6.36
2023-02-11T16:52:03.374Z,6.37
2023-02-11T16:54:32.299Z,6.33
2023-02-11T16:57:02.344Z,6.34
2023-02-11T16:59:30.912Z,6.35
2023-02-11T17:01:59.633Z,6.33
2023-02-11T17:04:31.747Z,6.29
2023-02-11T17:07:01.060Z,6.28
2023-02-11T17:09:31.194Z,6.28
2023-02-11T17:12:03.849Z,6.29
2023-02-11T17:14:32.918Z,6.28
2023-02-11T17:17:02.130Z,6.28
2023-02-11T17:19:31.427Z,6.28
2023-02-11T17:22:00.282Z,6.29
2023-02-11T17:24:29.350Z,6.28
2023-02-11T17:26:58.626Z,6.33
2023-02-11T17:29:27.596Z,6.37
2023-02-11T17:31:56.222Z,6.40
2023-02-11T17:34:25.911Z,6.41
2023-02-11T17:36:55.204Z,6.43
2023-02-11T17:39:24.458Z,6.42
2023-02-11T17:41:53.358Z,6.40
2023-02-11T17:44:22.019Z,6.38
2023-02-11T17:46:50.667Z,6.38
2023-02-11T17:49:20.737Z,6.37
2023-02-11T17:51:49.668Z,6.37
2023-02-11T17:54:21.947Z,6.38
2023-02-11T17:56:51.052Z,6.40
2023-02-11T17:59:20.089Z,6.39
2023-02-11T18:01:49.059Z,6.40
2023-02-11T18:04:28.121Z,6.41
2023-02-11T18:07:19.221Z,6.43
2023-02-11T18:10:04.328Z,6.44
2023-02-11T18:12:51.021Z,6.41
2023-02-11T18:15:41.048Z,6.35
2023-02-11T18:21:31.388Z,6.31
2023-02-11T18:24:21.160Z,6.34
2023-02-11T18:27:15.885Z,6.37
2023-02-11T18:30:01.999Z,6.36
2023-02-11T18:32:50.319Z,6.37
2023-02-11T18:35:36.927Z,6.41
2023-02-11T18:38:43.779Z,6.44
2023-02-11T18:41:38.958Z,6.45
2023-02-11T18:44:23.350Z,6.47
2023-02-11T18:47:25.422Z,6.48
2023-02-11T18:50:10.319Z,6.47
2023-02-11T18:52:40.280Z,6.46
2023-02-11T18:55:10.023Z,6.45
2023-02-11T18:57:38.740Z,6.47
2023-02-11T19:00:10.428Z,6.49
2023-02-11T19:02:39.300Z,6.53
2023-02-11T19:05:08.146Z,6.55
2023-02-11T19:07:37.424Z,6.55
2023-02-11T19:10:07.244Z,6.57
2023-02-11T19:12:36.135Z,6.58
2023-02-11T19:15:06.906Z,6.62
2023-02-11T19:17:35.953Z,6.64
2023-02-11T19:20:06.345Z,6.64
2023-02-11T19:22:35.704Z,6.63
2023-02-11T19:25:04.671Z,6.59
2023-02-11T19:27:33.645Z,6.57
2023-02-11T19:30:02.396Z,6.54
2023-02-11T19:32:31.724Z,6.53
2023-02-11T19:35:04.631Z,6.53
2023-02-11T19:37:33.665Z,6.52
2023-02-11T19:40:02.306Z,6.53
2023-02-11T19:42:31.100Z,6.55
2023-02-11T19:45:00.029Z,6.58
2023-02-11T19:47:28.598Z,6.58
2023-02-11T19:50:11.019Z,6.59
2023-02-11T19:52:46.527Z,6.59
2023-02-11T19:55:15.482Z,6.59
2023-02-11T19:57:44.327Z,6.60
2023-02-11T20:00:13.437Z,6.60
2023-02-11T20:02:43.826Z,6.56
2023-02-11T20:05:13.709Z,6.55
2023-02-11T20:07:42.434Z,6.53
2023-02-11T20:10:11.690Z,6.55
2023-02-11T20:12:40.447Z,6.56
2023-02-11T20:15:09.548Z,6.56
2023-02-11T20:17:38.222Z,6.57
2023-02-11T20:20:07.301Z,6.58
2023-02-11T20:22:36.192Z,6.59
2023-02-11T20:25:05.645Z,6.61
2023-02-11T20:27:34.547Z,6.59
2023-02-11T20:30:04.203Z,6.57
2023-02-11T20:32:38.768Z,6.53
2023-02-11T20:35:09.111Z,6.51
2023-02-11T20:37:39.876Z,6.52
2023-02-11T20:40:09.852Z,6.52
2023-02-11T20:42:38.409Z,6.51
2023-02-11T20:45:07.640Z,6.51
2023-02-11T20:47:38.462Z,6.51
2023-02-11T20:50:07.899Z,6.54
2023-02-11T20:52:37.209Z,6.56
2023-02-11T20:55:07.198Z,6.56
2023-02-11T20:57:35.870Z,6.57
2023-02-11T21:00:04.880Z,6.56
2023-02-11T21:02:33.953Z,6.54
2023-02-11T21:05:02.653Z,6.53
2023-02-11T21:07:31.841Z,6.51
2023-02-11T21:10:00.717Z,6.49
2023-02-11T21:12:29.584Z,6.46
2023-02-11T21:14:59.284Z,6.46
2023-02-11T21:17:31.583Z,6.44
2023-02-11T21:20:00.592Z,6.42
2023-02-11T21:22:29.936Z,6.41
2023-02-11T21:24:58.580Z,6.41
2023-02-11T21:27:32.573Z,6.44
2023-02-11T21:30:01.871Z,6.47
2023-02-11T21:32:30.941Z,6.50
2023-02-11T21:35:02.182Z,6.54
2023-02-11T21:37:31.640Z,6.55
2023-02-11T21:40:00.628Z,6.57
2023-02-11T21:42:30.107Z,6.56
2023-02-11T21:44:59.157Z,6.55
2023-02-11T21:47:28.244Z,6.51
2023-02-11T21:49:59.015Z,6.50
2023-02-11T21:52:27.886Z,6.48
2023-02-11T21:54:56.870Z,6.47
2023-02-11T21:57:25.705Z,6.47
2023-02-11T21:59:54.854Z,6.46
2023-02-11T22:02:24.006Z,6.46
2023-02-11T22:04:53.165Z,6.47
2023-02-11T22:07:23.020Z,6.49
2023-02-11T22:09:52.894Z,6.48
2023-02-11T22:12:22.755Z,6.45
2023-02-11T22:14:51.984Z,6.46
2023-02-11T22:17:20.790Z,6.48
2023-02-11T22:19:49.908Z,6.50
2023-02-11T22:22:20.052Z,6.51
2023-02-11T22:24:49.189Z,6.51
2023-02-11T22:27:20.204Z,6.49
2023-02-11T22:29:49.108Z,6.43
2023-02-11T22:32:18.466Z,6.39
2023-02-11T22:34:47.012Z,6.38
2023-02-11T22:37:15.758Z,6.40
2023-02-11T22:39:44.540Z,6.40
2023-02-11T22:42:13.182Z,6.42
2023-02-11T22:44:42.131Z,6.46
2023-02-11T22:47:10.933Z,6.49
2023-02-11T22:49:41.174Z,6.52
2023-02-11T22:52:09.979Z,6.56
2023-02-11T22:54:39.250Z,6.59
2023-02-11T22:57:07.786Z,6.58
2023-02-11T22:59:36.826Z,6.59
2023-02-11T23:02:05.850Z,6.59
2023-02-11T23:04:34.386Z,6.54
2023-02-11T23:07:03.252Z,6.50
2023-02-11T23:09:32.270Z,6.48
2023-02-11T23:12:00.830Z,6.46
2023-02-11T23:14:29.761Z,6.46
2023-02-11T23:16:59.036Z,6.46
2023-02-11T23:19:27.697Z,6.45
2023-02-11T23:21:56.573Z,6.49
2023-02-11T23:24:25.887Z,6.51
2023-02-11T23:26:54.772Z,6.54
2023-02-11T23:29:23.957Z,6.56
2023-02-11T23:31:52.998Z,6.55
2023-02-11T23:34:25.581Z,6.50
2023-02-11T23:36:54.900Z,6.47
2023-02-11T23:39:23.645Z,6.45
2023-02-11T23:41:59.591Z,6.44
2023-02-11T23:44:28.965Z,6.43
2023-02-11T23:46:57.680Z,6.41
2023-02-11T23:49:26.677Z,6.42
2023-02-11T23:51:55.670Z,6.43
2023-02-11T23:54:24.273Z,6.41
2023-02-11T23:56:53.399Z,6.43
2023-02-11T23:59:22.602Z,6.43
